createdAt,value
2017-10-25T00:00:00.022Z,782.73
2017-10-25T00:00:03.900Z,782.72
2017-10-25T00:00:08.118Z,782.74
2017-10-25T00:00:12.199Z,782.71
2017-10-25T00:00:16.144Z,782.76
2017-10-25T00:00:20.504Z,782.75
2017-10-25T00:00:24.317Z,782.77
2017-10-25T00:00:28.397Z,782.76
2017-10-25T00:00:32.610Z,782.76
2017-10-25T00:00:36.726Z,782.78
2017-10-25T00:00:40.810Z,782.8
2017-10-25T00:00:45.024Z,782.77
2017-10-25T00:00:48.838Z,782.79
2017-10-25T00:00:52.917Z,782.76
2017-10-25T00:00:57.003Z,782.77
2017-10-25T00:01:01.255Z,782.71
2017-10-25T00:01:05.732Z,782.77
2017-10-25T00:01:09.807Z,782.79
2017-10-25T00:01:13.897Z,782.75
2017-10-25T00:01:17.844Z,782.79
2017-10-25T00:01:21.921Z,782.78
2017-10-25T00:01:25.868Z,782.79
2017-10-25T00:01:29.822Z,782.81
2017-10-25T00:01:33.897Z,782.78
2017-10-25T00:01:37.845Z,782.82
2017-10-25T00:01:41.665Z,782.83
2017-10-25T00:01:45.624Z,782.81
2017-10-25T00:01:49.569Z,782.8
2017-10-25T00:01:53.784Z,782.82
2017-10-25T00:01:57.735Z,782.79
2017-10-25T00:02:01.882Z,782.81
2017-10-25T00:02:05.833Z,782.81
2017-10-25T00:02:10.047Z,782.84
2017-10-25T00:02:14.127Z,782.86
2017-10-25T00:02:17.808Z,782.85
2017-10-25T00:02:21.486Z,782.82
2017-10-25T00:02:25.562Z,782.84
2017-10-25T00:02:29.780Z,782.83
2017-10-25T00:02:33.857Z,782.83
2017-10-25T00:02:37.804Z,782.83
2017-10-25T00:02:41.754Z,782.83
2017-10-25T00:02:45.567Z,782.85
2017-10-25T00:02:49.656Z,782.84
2017-10-25T00:02:53.599Z,782.8
2017-10-25T00:02:57.812Z,782.83
2017-10-25T00:03:01.639Z,782.84
2017-10-25T00:03:05.844Z,782.8
2017-10-25T00:03:10.060Z,782.8
2017-10-25T00:03:14.141Z,782.86
2017-10-25T00:03:18.219Z,782.85
2017-10-25T00:03:22.164Z,782.87
2017-10-25T00:03:26.245Z,782.84
2017-10-25T00:03:30.068Z,782.85
2017-10-25T00:03:34.293Z,782.85
2017-10-25T00:03:38.369Z,782.88
2017-10-25T00:03:42.580Z,782.88
2017-10-25T00:03:46.665Z,782.87
2017-10-25T00:03:51.005Z,782.9
2017-10-25T00:03:55.217Z,782.86
2017-10-25T00:03:59.166Z,782.87
2017-10-25T00:04:03.459Z,782.86
2017-10-25T00:04:07.540Z,782.9
2017-10-25T00:04:11.620Z,782.88
2017-10-25T00:04:15.433Z,782.83
2017-10-25T00:04:19.643Z,782.83
2017-10-25T00:04:23.856Z,782.85
2017-10-25T00:04:27.669Z,782.88
2017-10-25T00:04:31.617Z,782.87
2017-10-25T00:04:35.454Z,782.92
2017-10-25T00:04:39.538Z,782.89
2017-10-25T00:04:43.485Z,782.87
2017-10-25T00:04:47.826Z,782.88
2017-10-25T00:04:51.637Z,782.9
2017-10-25T00:04:55.851Z,782.87
2017-10-25T00:04:59.932Z,782.92
2017-10-25T00:05:04.070Z,782.91
2017-10-25T00:05:08.420Z,782.91
2017-10-25T00:05:12.637Z,782.88
2017-10-25T00:05:16.721Z,782.88
2017-10-25T00:05:20.666Z,782.88
2017-10-25T00:05:25.006Z,782.9
2017-10-25T00:05:29.084Z,782.93
2017-10-25T00:05:33.038Z,782.91
2017-10-25T00:05:36.852Z,782.91
2017-10-25T00:05:41.060Z,782.91
2017-10-25T00:05:44.891Z,782.92
2017-10-25T00:05:48.971Z,782.91
2017-10-25T00:05:52.928Z,782.91
2017-10-25T00:05:56.885Z,782.91
2017-10-25T00:06:00.957Z,782.93
2017-10-25T00:06:05.035Z,782.88
2017-10-25T00:06:09.127Z,782.92
2017-10-25T00:06:13.071Z,782.92
2017-10-25T00:06:17.282Z,782.93
2017-10-25T00:06:21.365Z,782.91
2017-10-25T00:06:25.186Z,782.95
2017-10-25T00:06:29.278Z,782.94
2017-10-25T00:06:33.220Z,782.93
2017-10-25T00:06:37.302Z,782.93
2017-10-25T00:06:41.273Z,782.93
2017-10-25T00:06:45.215Z,782.94
2017-10-25T00:06:49.439Z,782.94
2017-10-25T00:06:53.268Z,782.93
2017-10-25T00:06:57.079Z,782.95
2017-10-25T00:07:01.031Z,782.96
2017-10-25T00:07:05.183Z,782.94
2017-10-25T00:07:08.997Z,782.95
2017-10-25T00:07:13.212Z,782.96
2017-10-25T00:07:17.560Z,782.95
2017-10-25T00:07:21.637Z,782.97
2017-10-25T00:07:25.720Z,782.97
2017-10-25T00:07:29.540Z,782.96
2017-10-25T00:07:33.749Z,782.96
2017-10-25T00:07:37.831Z,782.98
2017-10-25T00:07:41.778Z,782.98
2017-10-25T00:07:45.994Z,782.97
2017-10-25T00:07:49.947Z,783
2017-10-25T00:07:54.031Z,782.99
2017-10-25T00:07:57.979Z,782.95
2017-10-25T00:08:02.324Z,782.97
2017-10-25T00:08:06.404Z,782.98
2017-10-25T00:08:10.482Z,782.97
2017-10-25T00:08:14.297Z,782.96
2017-10-25T00:08:18.511Z,782.96
2017-10-25T00:08:22.588Z,782.97
2017-10-25T00:08:26.531Z,782.97
2017-10-25T00:08:30.745Z,782.99
2017-10-25T00:08:34.561Z,782.99
2017-10-25T00:08:38.778Z,782.98
2017-10-25T00:08:43.012Z,782.99
2017-10-25T00:08:47.347Z,782.95
2017-10-25T00:08:51.295Z,783.01
2017-10-25T00:08:55.109Z,782.99
2017-10-25T00:08:58.793Z,782.97
2017-10-25T00:09:02.874Z,782.96
2017-10-25T00:09:06.816Z,782.96
2017-10-25T00:09:10.768Z,782.99
2017-10-25T00:09:15.032Z,782.96
2017-10-25T00:09:18.844Z,782.98
2017-10-25T00:09:22.795Z,782.99
2017-10-25T00:09:26.738Z,782.97
2017-10-25T00:09:30.816Z,782.99
2017-10-25T00:09:34.779Z,782.97
2017-10-25T00:09:38.609Z,782.96
2017-10-25T00:09:42.557Z,782.96
2017-10-25T00:09:46.646Z,782.94
2017-10-25T00:09:50.463Z,782.96
2017-10-25T00:09:54.410Z,782.96
2017-10-25T00:09:58.358Z,783
2017-10-25T00:10:02.446Z,782.99
2017-10-25T00:10:06.527Z,782.98
2017-10-25T00:10:10.747Z,783
2017-10-25T00:10:14.700Z,783.02
2017-10-25T00:10:19.039Z,783.05
2017-10-25T00:10:23.129Z,783.01
2017-10-25T00:10:27.209Z,783
2017-10-25T00:10:31.153Z,783.04
2017-10-25T00:10:34.970Z,782.99
2017-10-25T00:10:39.049Z,782.98
2017-10-25T00:10:43.027Z,783
2017-10-25T00:10:47.232Z,783.01
2017-10-25T00:10:51.180Z,783
2017-10-25T00:10:54.997Z,782.98
2017-10-25T00:10:59.070Z,783.01
2017-10-25T00:11:03.294Z,782.97
2017-10-25T00:11:06.975Z,783
2017-10-25T00:11:11.321Z,782.97
2017-10-25T00:11:15.535Z,782.99
2017-10-25T00:11:19.485Z,782.97
2017-10-25T00:11:23.568Z,782.99
2017-10-25T00:11:27.382Z,782.96
2017-10-25T00:11:31.456Z,782.95
2017-10-25T00:11:35.405Z,782.97
2017-10-25T00:11:39.485Z,783
2017-10-25T00:11:43.443Z,782.98
2017-10-25T00:11:47.522Z,782.98
2017-10-25T00:11:51.615Z,783
2017-10-25T00:11:55.684Z,782.97
2017-10-25T00:11:59.631Z,782.96
2017-10-25T00:12:03.733Z,782.97
2017-10-25T00:12:07.942Z,782.97
2017-10-25T00:12:12.159Z,782.97
2017-10-25T00:12:16.108Z,782.98
2017-10-25T00:12:20.204Z,782.96
2017-10-25T00:12:24.414Z,782.95
2017-10-25T00:12:28.362Z,782.93
2017-10-25T00:12:32.172Z,782.94
2017-10-25T00:12:36.248Z,782.94
2017-10-25T00:12:40.589Z,782.98
2017-10-25T00:12:44.547Z,782.95
2017-10-25T00:12:48.885Z,782.93
2017-10-25T00:12:52.831Z,782.95
2017-10-25T00:12:56.905Z,782.95
2017-10-25T00:13:00.871Z,782.88
2017-10-25T00:13:04.937Z,782.93
2017-10-25T00:13:09.151Z,782.92
2017-10-25T00:13:12.972Z,782.95
2017-10-25T00:13:16.653Z,782.94
2017-10-25T00:13:20.731Z,782.94
2017-10-25T00:13:24.679Z,782.92
2017-10-25T00:13:28.491Z,782.94
2017-10-25T00:13:32.437Z,782.91
2017-10-25T00:13:36.522Z,782.93
2017-10-25T00:13:40.744Z,782.93
2017-10-25T00:13:44.812Z,782.87
2017-10-25T00:13:48.768Z,782.87
2017-10-25T00:13:52.723Z,782.86
2017-10-25T00:13:56.524Z,782.9
2017-10-25T00:14:00.734Z,782.9
2017-10-25T00:14:04.740Z,782.93
2017-10-25T00:14:08.707Z,782.91
2017-10-25T00:14:12.655Z,782.88
2017-10-25T00:14:16.867Z,782.91
2017-10-25T00:14:20.832Z,782.89
2017-10-25T00:14:25.046Z,782.85
2017-10-25T00:14:29.123Z,782.88
2017-10-25T00:14:32.941Z,782.88
2017-10-25T00:14:37.026Z,782.86
2017-10-25T00:14:41.100Z,782.83
2017-10-25T00:14:45.182Z,782.87
2017-10-25T00:14:49.397Z,782.86
2017-10-25T00:14:53.472Z,782.88
2017-10-25T00:14:57.557Z,782.84
2017-10-25T00:15:01.666Z,782.83
2017-10-25T00:15:05.717Z,782.84
2017-10-25T00:15:09.656Z,782.83
2017-10-25T00:15:13.625Z,782.83
2017-10-25T00:15:17.842Z,782.83
2017-10-25T00:15:21.779Z,782.82
2017-10-25T00:15:25.728Z,782.86
2017-10-25T00:15:29.942Z,782.84
2017-10-25T00:15:33.897Z,782.83
2017-10-25T00:15:37.843Z,782.87
2017-10-25T00:15:41.661Z,782.82
2017-10-25T00:15:45.882Z,782.84
2017-10-25T00:15:49.961Z,782.83
2017-10-25T00:15:54.037Z,782.82
2017-10-25T00:15:57.980Z,782.81
2017-10-25T00:16:02.319Z,782.84
2017-10-25T00:16:06.137Z,782.8
2017-10-25T00:16:10.350Z,782.83
2017-10-25T00:16:14.436Z,782.79
2017-10-25T00:16:18.778Z,782.81
2017-10-25T00:16:22.853Z,782.82
2017-10-25T00:16:26.927Z,782.79
2017-10-25T00:16:30.740Z,782.82
2017-10-25T00:16:34.824Z,782.84
2017-10-25T00:16:38.774Z,782.83
2017-10-25T00:16:42.850Z,782.8
2017-10-25T00:16:47.066Z,782.82
2017-10-25T00:16:51.146Z,782.81
2017-10-25T00:16:55.095Z,782.8
2017-10-25T00:16:59.039Z,782.82
2017-10-25T00:17:03.335Z,782.83
2017-10-25T00:17:07.143Z,782.78
2017-10-25T00:17:11.099Z,782.78
2017-10-25T00:17:14.939Z,782.78
2017-10-25T00:17:19.157Z,782.78
2017-10-25T00:17:23.105Z,782.77
2017-10-25T00:17:27.058Z,782.79
2017-10-25T00:17:31.143Z,782.77
2017-10-25T00:17:34.962Z,782.75
2017-10-25T00:17:39.035Z,782.77
2017-10-25T00:17:42.995Z,782.8
2017-10-25T00:17:46.675Z,782.76
2017-10-25T00:17:50.495Z,782.76
2017-10-25T00:17:54.587Z,782.76
2017-10-25T00:17:58.415Z,782.75
2017-10-25T00:18:02.711Z,782.77
2017-10-25T00:18:06.944Z,782.76
2017-10-25T00:18:10.891Z,782.73
2017-10-25T00:18:14.970Z,782.74
2017-10-25T00:18:18.912Z,782.76
2017-10-25T00:18:22.989Z,782.73
2017-10-25T00:18:26.815Z,782.75
2017-10-25T00:18:30.756Z,782.73
2017-10-25T00:18:34.835Z,782.7
2017-10-25T00:18:39.043Z,782.77
2017-10-25T00:18:42.857Z,782.68
2017-10-25T00:18:46.541Z,782.72
2017-10-25T00:18:50.499Z,782.72
2017-10-25T00:18:54.325Z,782.73
2017-10-25T00:18:58.546Z,782.72
2017-10-25T00:19:02.498Z,782.68
2017-10-25T00:19:06.578Z,782.69
2017-10-25T00:19:10.650Z,782.72
2017-10-25T00:19:14.729Z,782.73
2017-10-25T00:19:18.410Z,782.7
2017-10-25T00:19:22.484Z,782.68
2017-10-25T00:19:26.433Z,782.69
2017-10-25T00:19:30.389Z,782.71
2017-10-25T00:19:34.597Z,782.66
2017-10-25T00:19:38.545Z,782.67
2017-10-25T00:19:42.490Z,782.66
2017-10-25T00:19:46.583Z,782.66
2017-10-25T00:19:50.659Z,782.68
2017-10-25T00:19:54.607Z,782.69
2017-10-25T00:19:58.703Z,782.69
2017-10-25T00:20:02.437Z,782.67
2017-10-25T00:20:06.516Z,782.67
2017-10-25T00:20:10.464Z,782.71
2017-10-25T00:20:14.665Z,782.65
2017-10-25T00:20:18.739Z,782.65
2017-10-25T00:20:22.693Z,782.67
2017-10-25T00:20:26.512Z,782.66
2017-10-25T00:20:30.456Z,782.64
2017-10-25T00:20:34.535Z,782.69
2017-10-25T00:20:38.483Z,782.65
2017-10-25T00:20:42.565Z,782.66
2017-10-25T00:20:46.647Z,782.65
2017-10-25T00:20:50.868Z,782.66
2017-10-25T00:20:55.214Z,782.65
2017-10-25T00:20:59.024Z,782.64
2017-10-25T00:21:03.072Z,782.66
2017-10-25T00:21:07.025Z,782.69
2017-10-25T00:21:10.976Z,782.65
2017-10-25T00:21:14.939Z,782.63
2017-10-25T00:21:19.145Z,782.65
2017-10-25T00:21:23.221Z,782.65
2017-10-25T00:21:27.303Z,782.66
2017-10-25T00:21:31.387Z,782.66
2017-10-25T00:21:35.610Z,782.65
2017-10-25T00:21:39.689Z,782.63
2017-10-25T00:21:43.902Z,782.66
2017-10-25T00:21:47.992Z,782.64
2017-10-25T00:21:52.074Z,782.63
2017-10-25T00:21:56.025Z,782.63
2017-10-25T00:21:59.841Z,782.62
2017-10-25T00:22:04.082Z,782.66
2017-10-25T00:22:08.032Z,782.64
2017-10-25T00:22:11.979Z,782.64
2017-10-25T00:22:15.924Z,782.62
2017-10-25T00:22:20.130Z,782.62
2017-10-25T00:22:24.088Z,782.61
2017-10-25T00:22:27.904Z,782.64
2017-10-25T00:22:31.848Z,782.61
2017-10-25T00:22:35.662Z,782.61
2017-10-25T00:22:39.749Z,782.64
2017-10-25T00:22:43.703Z,782.66
2017-10-25T00:22:47.904Z,782.65
2017-10-25T00:22:51.725Z,782.61
2017-10-25T00:22:55.808Z,782.62
2017-10-25T00:22:59.624Z,782.61
2017-10-25T00:23:03.307Z,782.64
2017-10-25T00:23:07.250Z,782.63
2017-10-25T00:23:11.191Z,782.64
2017-10-25T00:23:15.137Z,782.65
2017-10-25T00:23:19.221Z,782.65
2017-10-25T00:23:23.028Z,782.61
2017-10-25T00:23:26.714Z,782.64
2017-10-25T00:23:30.801Z,782.63
2017-10-25T00:23:34.879Z,782.66
2017-10-25T00:23:38.951Z,782.63
2017-10-25T00:23:42.896Z,782.63
2017-10-25T00:23:46.976Z,782.65
2017-10-25T00:23:51.076Z,782.63
2017-10-25T00:23:55.159Z,782.63
2017-10-25T00:23:59.240Z,782.63
2017-10-25T00:24:03.497Z,782.65
2017-10-25T00:24:07.465Z,782.65
2017-10-25T00:24:11.417Z,782.62
2017-10-25T00:24:15.498Z,782.6
2017-10-25T00:24:19.709Z,782.59
2017-10-25T00:24:23.659Z,782.58
2017-10-25T00:24:27.993Z,782.68
2017-10-25T00:24:31.816Z,782.67
2017-10-25T00:24:35.772Z,782.67
2017-10-25T00:24:40.128Z,782.65
2017-10-25T00:24:44.080Z,782.67
2017-10-25T00:24:48.023Z,782.68
2017-10-25T00:24:51.706Z,782.66
2017-10-25T00:24:55.387Z,782.65
2017-10-25T00:24:59.199Z,782.68
2017-10-25T00:25:03.147Z,782.68
2017-10-25T00:25:07.223Z,782.65
2017-10-25T00:25:11.306Z,782.66
2017-10-25T00:25:15.259Z,782.68
2017-10-25T00:25:19.613Z,782.62
2017-10-25T00:25:23.555Z,782.67
2017-10-25T00:25:27.498Z,782.67
2017-10-25T00:25:31.577Z,782.68
2017-10-25T00:25:35.790Z,782.68
2017-10-25T00:25:39.605Z,782.65
2017-10-25T00:25:43.553Z,782.67
2017-10-25T00:25:47.234Z,782.67
2017-10-25T00:25:51.316Z,782.68
2017-10-25T00:25:55.122Z,782.68
2017-10-25T00:25:58.943Z,782.69
2017-10-25T00:26:02.893Z,782.66
2017-10-25T00:26:06.710Z,782.69
2017-10-25T00:26:10.532Z,782.67
2017-10-25T00:26:14.479Z,782.68
2017-10-25T00:26:18.435Z,782.64
2017-10-25T00:26:22.524Z,782.64
2017-10-25T00:26:26.330Z,782.64
2017-10-25T00:26:30.418Z,782.61
2017-10-25T00:26:34.367Z,782.61
2017-10-25T00:26:38.312Z,782.67
2017-10-25T00:26:42.391Z,782.7
2017-10-25T00:26:46.463Z,782.68
2017-10-25T00:26:50.546Z,782.68
2017-10-25T00:26:54.227Z,782.69
2017-10-25T00:26:58.041Z,782.72
2017-10-25T00:27:02.267Z,782.71
2017-10-25T00:27:06.217Z,782.68
2017-10-25T00:27:10.037Z,782.7
2017-10-25T00:27:14.125Z,782.7
2017-10-25T00:27:18.473Z,782.7
2017-10-25T00:27:22.422Z,782.66
2017-10-25T00:27:26.378Z,782.68
2017-10-25T00:27:30.324Z,782.68
2017-10-25T00:27:34.406Z,782.7
2017-10-25T00:27:38.485Z,782.69
2017-10-25T00:27:42.566Z,782.68
2017-10-25T00:27:46.775Z,782.7
2017-10-25T00:27:50.614Z,782.69
2017-10-25T00:27:54.955Z,782.72
2017-10-25T00:27:58.766Z,782.71
2017-10-25T00:28:02.578Z,782.7
2017-10-25T00:28:06.793Z,782.73
2017-10-25T00:28:10.617Z,782.74
2017-10-25T00:28:14.697Z,782.71
2017-10-25T00:28:19.170Z,782.72
2017-10-25T00:28:23.115Z,782.72
2017-10-25T00:28:26.936Z,782.68
2017-10-25T00:28:31.176Z,782.68
2017-10-25T00:28:35.119Z,782.72
2017-10-25T00:28:39.196Z,782.63
2017-10-25T00:28:43.137Z,782.69
2017-10-25T00:28:46.951Z,782.74
2017-10-25T00:28:51.023Z,782.7
2017-10-25T00:28:54.835Z,782.73
2017-10-25T00:28:59.049Z,782.72
2017-10-25T00:29:03.041Z,782.71
2017-10-25T00:29:07.116Z,782.74
2017-10-25T00:29:11.324Z,782.71
2017-10-25T00:29:15.541Z,782.66
2017-10-25T00:29:19.483Z,782.67
2017-10-25T00:29:23.706Z,782.68
2017-10-25T00:29:27.780Z,782.73
2017-10-25T00:29:31.988Z,782.73
2017-10-25T00:29:36.334Z,782.76
2017-10-25T00:29:40.282Z,782.7
2017-10-25T00:29:44.359Z,782.75
2017-10-25T00:29:48.566Z,782.72
2017-10-25T00:29:52.527Z,782.72
2017-10-25T00:29:56.475Z,782.72
2017-10-25T00:30:00.559Z,782.73
2017-10-25T00:30:04.506Z,782.7
2017-10-25T00:30:08.732Z,782.72
2017-10-25T00:30:12.815Z,782.7
2017-10-25T00:30:16.908Z,782.74
2017-10-25T00:30:20.850Z,782.73
2017-10-25T00:30:25.053Z,782.72
2017-10-25T00:30:29.272Z,782.7
2017-10-25T00:30:33.085Z,782.74
2017-10-25T00:30:37.297Z,782.73
2017-10-25T00:30:41.379Z,782.71
2017-10-25T00:30:45.594Z,782.76
2017-10-25T00:30:49.818Z,782.73
2017-10-25T00:30:54.025Z,782.74
2017-10-25T00:30:57.973Z,782.77
2017-10-25T00:31:02.059Z,782.74
2017-10-25T00:31:06.004Z,782.73
2017-10-25T00:31:10.085Z,782.76
2017-10-25T00:31:14.163Z,782.78
2017-10-25T00:31:18.370Z,782.75
2017-10-25T00:31:22.313Z,782.76
2017-10-25T00:31:26.406Z,782.75
2017-10-25T00:31:30.352Z,782.7
2017-10-25T00:31:34.171Z,782.7
2017-10-25T00:31:37.991Z,782.71
2017-10-25T00:31:42.201Z,782.74
2017-10-25T00:31:46.401Z,782.76
2017-10-25T00:31:50.353Z,782.77
2017-10-25T00:31:54.167Z,782.76
2017-10-25T00:31:58.257Z,782.73
2017-10-25T00:32:02.203Z,782.75
2017-10-25T00:32:06.300Z,782.76
2017-10-25T00:32:10.256Z,782.76
2017-10-25T00:32:14.464Z,782.73
2017-10-25T00:32:18.539Z,782.76
2017-10-25T00:32:22.894Z,782.77
2017-10-25T00:32:26.976Z,782.72
2017-10-25T00:32:31.189Z,782.73
2017-10-25T00:32:35.009Z,782.78
2017-10-25T00:32:38.959Z,782.78
2017-10-25T00:32:43.033Z,782.79
2017-10-25T00:32:47.122Z,782.77
2017-10-25T00:32:51.084Z,782.76
2017-10-25T00:32:55.034Z,782.74
2017-10-25T00:32:58.983Z,782.76
2017-10-25T00:33:02.803Z,782.73
2017-10-25T00:33:06.881Z,782.75
2017-10-25T00:33:10.698Z,782.73
2017-10-25T00:33:14.510Z,782.74
2017-10-25T00:33:18.462Z,782.72
2017-10-25T00:33:22.271Z,782.76
2017-10-25T00:33:26.224Z,782.74
2017-10-25T00:33:30.169Z,782.75
2017-10-25T00:33:34.127Z,782.74
2017-10-25T00:33:38.216Z,782.71
2017-10-25T00:33:42.419Z,782.74
2017-10-25T00:33:46.241Z,782.75
2017-10-25T00:33:50.187Z,782.73
2017-10-25T00:33:54.136Z,782.75
2017-10-25T00:33:58.216Z,782.72
2017-10-25T00:34:02.460Z,782.68
2017-10-25T00:34:06.672Z,782.67
2017-10-25T00:34:10.630Z,782.68
2017-10-25T00:34:14.967Z,782.7
2017-10-25T00:34:18.784Z,782.72
2017-10-25T00:34:22.473Z,782.7
2017-10-25T00:34:26.684Z,782.74
2017-10-25T00:34:30.763Z,782.73
2017-10-25T00:34:34.709Z,782.73
2017-10-25T00:34:38.664Z,782.71
2017-10-25T00:34:42.622Z,782.75
2017-10-25T00:34:46.703Z,782.73
2017-10-25T00:34:50.914Z,782.69
2017-10-25T00:34:54.862Z,782.72
2017-10-25T00:34:58.940Z,782.72
2017-10-25T00:35:03.031Z,782.71
2017-10-25T00:35:06.972Z,782.73
2017-10-25T00:35:11.189Z,782.72
2017-10-25T00:35:15.142Z,782.74
2017-10-25T00:35:19.217Z,782.73
2017-10-25T00:35:23.290Z,782.7
2017-10-25T00:35:27.373Z,782.7
2017-10-25T00:35:31.462Z,782.71
2017-10-25T00:35:35.275Z,782.71
2017-10-25T00:35:39.355Z,782.71
2017-10-25T00:35:43.443Z,782.7
2017-10-25T00:35:47.789Z,782.69
2017-10-25T00:35:51.736Z,782.7
2017-10-25T00:35:55.941Z,782.72
2017-10-25T00:35:59.885Z,782.7
2017-10-25T00:36:03.837Z,782.72
2017-10-25T00:36:08.173Z,782.71
2017-10-25T00:36:11.999Z,782.72
2017-10-25T00:36:16.088Z,782.75
2017-10-25T00:36:19.906Z,782.71
2017-10-25T00:36:23.857Z,782.74
2017-10-25T00:36:27.692Z,782.72
2017-10-25T00:36:31.509Z,782.71
2017-10-25T00:36:35.586Z,782.71
2017-10-25T00:36:39.670Z,782.71
2017-10-25T00:36:43.617Z,782.68
2017-10-25T00:36:47.300Z,782.67
2017-10-25T00:36:51.376Z,782.67
2017-10-25T00:36:55.452Z,782.7
2017-10-25T00:36:59.407Z,782.72
2017-10-25T00:37:03.481Z,782.71
2017-10-25T00:37:07.690Z,782.72
2017-10-25T00:37:11.503Z,782.71
2017-10-25T00:37:15.583Z,782.71
2017-10-25T00:37:19.680Z,782.67
2017-10-25T00:37:23.625Z,782.71
2017-10-25T00:37:27.572Z,782.65
2017-10-25T00:37:31.520Z,782.71
2017-10-25T00:37:35.599Z,782.68
2017-10-25T00:37:39.803Z,782.67
2017-10-25T00:37:43.616Z,782.67
2017-10-25T00:37:47.562Z,782.66
2017-10-25T00:37:51.638Z,782.68
2017-10-25T00:37:55.718Z,782.66
2017-10-25T00:37:59.793Z,782.67
2017-10-25T00:38:04.117Z,782.65
2017-10-25T00:38:08.071Z,782.66
2017-10-25T00:38:12.415Z,782.65
2017-10-25T00:38:16.499Z,782.66
2017-10-25T00:38:20.443Z,782.69
2017-10-25T00:38:24.277Z,782.65
2017-10-25T00:38:28.225Z,782.66
2017-10-25T00:38:32.181Z,782.65
2017-10-25T00:38:36.387Z,782.68
2017-10-25T00:38:40.070Z,782.66
2017-10-25T00:38:44.285Z,782.68
2017-10-25T00:38:48.099Z,782.67
2017-10-25T00:38:52.067Z,782.66
2017-10-25T00:38:56.146Z,782.65
2017-10-25T00:39:00.220Z,782.64
2017-10-25T00:39:04.426Z,782.61
2017-10-25T00:39:08.374Z,782.66
2017-10-25T00:39:12.602Z,782.59
2017-10-25T00:39:16.416Z,782.67
2017-10-25T00:39:20.761Z,782.66
2017-10-25T00:39:24.576Z,782.64
2017-10-25T00:39:28.396Z,782.63
2017-10-25T00:39:32.605Z,782.62
2017-10-25T00:39:36.686Z,782.62
2017-10-25T00:39:40.762Z,782.63
2017-10-25T00:39:44.852Z,782.61
2017-10-25T00:39:48.531Z,782.61
2017-10-25T00:39:52.741Z,782.61
2017-10-25T00:39:56.686Z,782.61
2017-10-25T00:40:00.638Z,782.61
2017-10-25T00:40:04.890Z,782.6
2017-10-25T00:40:08.964Z,782.61
2017-10-25T00:40:12.777Z,782.6
2017-10-25T00:40:16.997Z,782.64
2017-10-25T00:40:21.208Z,782.61
2017-10-25T00:40:25.154Z,782.59
2017-10-25T00:40:29.116Z,782.61
2017-10-25T00:40:33.461Z,782.6
2017-10-25T00:40:37.406Z,782.62
2017-10-25T00:40:41.612Z,782.63
2017-10-25T00:40:45.693Z,782.62
2017-10-25T00:40:49.773Z,782.53
2017-10-25T00:40:53.585Z,782.56
2017-10-25T00:40:57.526Z,782.5
2017-10-25T00:41:01.474Z,782.59
2017-10-25T00:41:05.552Z,782.62
2017-10-25T00:41:09.633Z,782.62
2017-10-25T00:41:13.582Z,782.62
2017-10-25T00:41:17.650Z,782.6
2017-10-25T00:41:21.733Z,782.6
2017-10-25T00:41:25.699Z,782.59
2017-10-25T00:41:29.903Z,782.56
2017-10-25T00:41:33.848Z,782.59
2017-10-25T00:41:37.798Z,782.56
2017-10-25T00:41:41.613Z,782.52
2017-10-25T00:41:45.564Z,782.5
2017-10-25T00:41:49.514Z,782.53
2017-10-25T00:41:53.596Z,782.49
2017-10-25T00:41:57.668Z,782.52
2017-10-25T00:42:01.880Z,782.55
2017-10-25T00:42:06.239Z,782.59
2017-10-25T00:42:10.323Z,782.59
2017-10-25T00:42:14.403Z,782.57
2017-10-25T00:42:18.348Z,782.61
2017-10-25T00:42:22.559Z,782.61
2017-10-25T00:42:26.503Z,782.58
2017-10-25T00:42:30.453Z,782.57
2017-10-25T00:42:34.667Z,782.6
2017-10-25T00:42:38.482Z,782.59
2017-10-25T00:42:42.554Z,782.58
2017-10-25T00:42:46.383Z,782.57
2017-10-25T00:42:50.338Z,782.62
2017-10-25T00:42:54.156Z,782.64
2017-10-25T00:42:58.248Z,782.62
2017-10-25T00:43:02.349Z,782.56
2017-10-25T00:43:06.567Z,782.59
2017-10-25T00:43:10.642Z,782.56
2017-10-25T00:43:14.594Z,782.6
2017-10-25T00:43:18.666Z,782.58
2017-10-25T00:43:22.615Z,782.56
2017-10-25T00:43:26.689Z,782.55
2017-10-25T00:43:30.648Z,782.54
2017-10-25T00:43:34.989Z,782.55
2017-10-25T00:43:39.207Z,782.55
2017-10-25T00:43:43.333Z,782.55
2017-10-25T00:43:47.416Z,782.54
2017-10-25T00:43:51.231Z,782.56
2017-10-25T00:43:55.585Z,782.57
2017-10-25T00:43:59.664Z,782.53
2017-10-25T00:44:03.958Z,782.57
2017-10-25T00:44:08.446Z,782.53
2017-10-25T00:44:12.520Z,782.51
2017-10-25T00:44:16.595Z,782.52
2017-10-25T00:44:20.536Z,782.55
2017-10-25T00:44:24.350Z,782.55
2017-10-25T00:44:28.297Z,782.55
2017-10-25T00:44:32.245Z,782.53
2017-10-25T00:44:36.061Z,782.55
2017-10-25T00:44:40.285Z,782.47
2017-10-25T00:44:44.361Z,782.55
2017-10-25T00:44:48.437Z,782.49
2017-10-25T00:44:52.554Z,782.46
2017-10-25T00:44:56.371Z,782.52
2017-10-25T00:45:00.333Z,782.49
2017-10-25T00:45:04.156Z,782.55
2017-10-25T00:45:08.509Z,782.5
2017-10-25T00:45:12.463Z,782.49
2017-10-25T00:45:16.825Z,782.5
2017-10-25T00:45:20.778Z,782.51
2017-10-25T00:45:24.595Z,782.46
2017-10-25T00:45:28.810Z,782.5
2017-10-25T00:45:32.627Z,782.51
2017-10-25T00:45:36.833Z,782.51
2017-10-25T00:45:41.041Z,782.48
2017-10-25T00:45:45.129Z,782.47
2017-10-25T00:45:49.224Z,782.48
2017-10-25T00:45:53.299Z,782.46
2017-10-25T00:45:57.260Z,782.49
2017-10-25T00:46:01.346Z,782.44
2017-10-25T00:46:05.423Z,782.47
2017-10-25T00:46:09.381Z,782.46
2017-10-25T00:46:13.634Z,782.45
2017-10-25T00:46:17.577Z,782.48
2017-10-25T00:46:21.919Z,782.43
2017-10-25T00:46:26.129Z,782.44
2017-10-25T00:46:30.500Z,782.44
2017-10-25T00:46:34.574Z,782.46
2017-10-25T00:46:38.393Z,782.45
2017-10-25T00:46:42.206Z,782.42
2017-10-25T00:46:46.282Z,782.4
2017-10-25T00:46:50.628Z,782.44
2017-10-25T00:46:55.021Z,782.4
2017-10-25T00:46:58.807Z,782.42
2017-10-25T00:47:02.885Z,782.4
2017-10-25T00:47:07.248Z,782.41
2017-10-25T00:47:11.198Z,782.44
2017-10-25T00:47:15.273Z,782.41
2017-10-25T00:47:19.231Z,782.43
2017-10-25T00:47:23.466Z,782.43
2017-10-25T00:47:27.148Z,782.46
2017-10-25T00:47:31.352Z,782.45
2017-10-25T00:47:35.298Z,782.43
2017-10-25T00:47:39.379Z,782.46
2017-10-25T00:47:43.461Z,782.47
2017-10-25T00:47:47.276Z,782.45
2017-10-25T00:47:51.486Z,782.45
2017-10-25T00:47:55.302Z,782.48
2017-10-25T00:47:59.120Z,782.41
2017-10-25T00:48:03.334Z,782.39
2017-10-25T00:48:07.681Z,782.43
2017-10-25T00:48:11.887Z,782.38
2017-10-25T00:48:16.108Z,782.4
2017-10-25T00:48:20.317Z,782.43
2017-10-25T00:48:24.262Z,782.42
2017-10-25T00:48:28.205Z,782.41
2017-10-25T00:48:32.152Z,782.41
2017-10-25T00:48:36.099Z,782.46
2017-10-25T00:48:40.307Z,782.41
2017-10-25T00:48:44.519Z,782.41
2017-10-25T00:48:48.591Z,782.42
2017-10-25T00:48:52.405Z,782.41
2017-10-25T00:48:56.351Z,782.45
2017-10-25T00:49:00.310Z,782.43
2017-10-25T00:49:04.648Z,782.46
2017-10-25T00:49:08.738Z,782.38
2017-10-25T00:49:12.953Z,782.36
2017-10-25T00:49:16.896Z,782.39
2017-10-25T00:49:20.968Z,782.44
2017-10-25T00:49:25.045Z,782.4
2017-10-25T00:49:29.001Z,782.41
2017-10-25T00:49:32.809Z,782.41
2017-10-25T00:49:36.627Z,782.4
2017-10-25T00:49:40.838Z,782.4
2017-10-25T00:49:44.787Z,782.43
2017-10-25T00:49:49.125Z,782.43
2017-10-25T00:49:52.943Z,782.44
2017-10-25T00:49:57.020Z,782.44
2017-10-25T00:50:00.834Z,782.43
2017-10-25T00:50:04.647Z,782.42
2017-10-25T00:50:08.862Z,782.41
2017-10-25T00:50:12.814Z,782.4
2017-10-25T00:50:17.164Z,782.38
2017-10-25T00:50:21.376Z,782.42
2017-10-25T00:50:25.452Z,782.42
2017-10-25T00:50:29.402Z,782.41